createdAt,value
2018-07-09T00:01:12.365Z,2.10
2018-07-09T00:03:41.986Z,2.80
2018-07-09T00:06:11.545Z,2.60
2018-07-09T00:08:41.130Z,2.60
2018-07-09T00:11:10.632Z,3.20
2018-07-09T00:13:40.153Z,2.70
2018-07-09T00:16:09.644Z,2.87
2018-07-09T00:18:39.247Z,2.60
2018-07-09T00:21:08.780Z,2.27
2018-07-09T00:23:38.341Z,2.87
2018-07-09T00:26:07.932Z,2.70
2018-07-09T00:28:37.523Z,2.60
2018-07-09T00:31:07.048Z,2.40
2018-07-09T00:33:36.551Z,2.40
2018-07-09T00:36:06.782Z,2.50
2018-07-09T00:38:36.212Z,2.80
2018-07-09T00:41:05.762Z,2.67
2018-07-09T00:43:35.307Z,2.70
2018-07-09T00:46:04.910Z,2.50
2018-07-09T00:48:34.435Z,2.67
2018-07-09T00:51:04.146Z,2.60
2018-07-09T00:53:34.146Z,2.73
2018-07-09T00:56:03.704Z,2.83
2018-07-09T00:58:33.259Z,2.70
2018-07-09T01:01:02.819Z,2.87
2018-07-09T01:03:32.349Z,2.43
2018-07-09T01:06:01.842Z,2.47
2018-07-09T01:08:31.590Z,2.90
2018-07-09T01:11:12.351Z,2.60
2018-07-09T01:13:46.169Z,2.50
2018-07-09T01:16:15.663Z,2.50
2018-07-09T01:18:45.218Z,2.60
2018-07-09T01:21:15.465Z,2.53
2018-07-09T01:23:45.041Z,2.57
2018-07-09T01:26:14.603Z,2.43
2018-07-09T01:28:44.119Z,2.67
2018-07-09T01:31:13.590Z,2.43
2018-07-09T01:33:43.126Z,2.60
2018-07-09T01:36:12.597Z,3.00
2018-07-09T01:38:42.140Z,3.60
2018-07-09T01:41:11.635Z,2.70
2018-07-09T01:43:41.163Z,2.63
2018-07-09T01:46:10.671Z,2.80
2018-07-09T01:48:40.233Z,2.67
2018-07-09T01:51:09.707Z,2.53
2018-07-09T01:53:39.229Z,3.00
2018-07-09T01:56:08.808Z,2.60
2018-07-09T01:58:38.306Z,2.80
2018-07-09T02:01:07.845Z,2.43
2018-07-09T02:03:37.386Z,2.80
2018-07-09T02:06:06.885Z,2.70
2018-07-09T02:08:36.429Z,2.67
2018-07-09T02:11:06.230Z,3.73
2018-07-09T02:13:35.823Z,2.93
2018-07-09T02:16:05.353Z,3.10
2018-07-09T02:18:34.877Z,2.80
2018-07-09T02:21:04.440Z,2.70
2018-07-09T02:23:34.513Z,2.60
2018-07-09T02:26:04.019Z,3.40
2018-07-09T02:28:33.562Z,3.20
2018-07-09T02:31:03.064Z,3.17
2018-07-09T02:33:32.576Z,2.80
2018-07-09T02:36:02.137Z,2.70
2018-07-09T02:38:31.656Z,2.97
2018-07-09T02:41:01.232Z,3.00
2018-07-09T02:43:30.442Z,3.70
2018-07-09T02:45:59.794Z,3.30
2018-07-09T02:48:30.270Z,3.67
2018-07-09T02:50:59.781Z,3.40
2018-07-09T02:53:29.358Z,3.00
2018-07-09T02:55:58.926Z,3.50
2018-07-09T02:58:28.438Z,3.63
2018-07-09T03:00:58.010Z,3.53
2018-07-09T03:03:27.479Z,3.97
2018-07-09T03:05:57.024Z,3.50
2018-07-09T03:08:26.502Z,3.30
2018-07-09T03:10:56.036Z,3.30
2018-07-09T03:13:25.570Z,3.00
2018-07-09T03:15:55.082Z,3.43
2018-07-09T03:18:24.571Z,3.30
2018-07-09T03:20:54.087Z,3.63
2018-07-09T03:23:23.571Z,3.20
2018-07-09T03:25:53.063Z,3.40
2018-07-09T03:28:22.564Z,3.53
2018-07-09T03:30:52.043Z,3.80
2018-07-09T03:33:21.579Z,3.30
2018-07-09T03:35:51.126Z,3.30
2018-07-09T03:38:20.629Z,3.90
2018-07-09T03:40:50.139Z,3.33
2018-07-09T03:43:19.626Z,3.93
2018-07-09T03:45:49.132Z,3.53
2018-07-09T03:48:18.613Z,3.37
2018-07-09T03:50:48.108Z,3.33
2018-07-09T03:53:17.588Z,4.07
2018-07-09T03:55:47.254Z,3.83
2018-07-09T03:58:16.801Z,3.90
2018-07-09T04:00:46.503Z,4.03
2018-07-09T04:03:16.057Z,3.70
2018-07-09T04:05:45.591Z,3.70
2018-07-09T04:08:15.386Z,4.10
2018-07-09T04:10:44.890Z,4.97
2018-07-09T04:13:14.428Z,4.33
2018-07-09T04:15:43.919Z,4.70
2018-07-09T04:18:13.823Z,3.93
2018-07-09T04:20:43.395Z,4.33
2018-07-09T04:23:12.927Z,4.03
2018-07-09T04:25:42.411Z,4.03
2018-07-09T04:28:11.918Z,3.57
2018-07-09T04:30:41.458Z,4.13
2018-07-09T04:33:10.991Z,4.70
2018-07-09T04:35:40.467Z,5.20
2018-07-09T04:38:10.008Z,4.27
2018-07-09T04:40:39.484Z,4.37
2018-07-09T04:43:08.715Z,4.23
2018-07-09T04:45:38.022Z,3.90
2018-07-09T04:48:07.596Z,4.53
2018-07-09T04:50:37.125Z,4.10
2018-07-09T04:53:06.695Z,5.03
2018-07-09T04:55:36.231Z,4.87
2018-07-09T04:58:05.793Z,4.63
2018-07-09T05:00:35.359Z,4.07
2018-07-09T05:03:04.931Z,4.60
2018-07-09T05:05:34.574Z,5.10
2018-07-09T05:08:04.593Z,5.23
2018-07-09T05:10:34.215Z,4.43
2018-07-09T05:13:03.825Z,5.13
2018-07-09T05:15:33.275Z,4.53
2018-07-09T05:18:02.823Z,5.20
2018-07-09T05:20:32.381Z,4.33
2018-07-09T05:23:01.850Z,4.70
2018-07-09T05:25:31.501Z,4.77
2018-07-09T05:28:00.963Z,5.20
2018-07-09T05:30:30.491Z,4.57
2018-07-09T05:33:00.927Z,4.60
2018-07-09T05:35:30.435Z,5.00
2018-07-09T05:37:59.924Z,4.97
2018-07-09T05:40:29.490Z,4.57
2018-07-09T05:42:59.011Z,4.33
2018-07-09T05:45:28.584Z,4.47
2018-07-09T05:47:58.156Z,4.57
2018-07-09T05:50:27.680Z,4.60
2018-07-09T05:52:57.262Z,4.40
2018-07-09T05:55:26.805Z,5.03
2018-07-09T05:57:56.025Z,5.07
2018-07-09T06:00:25.352Z,5.13
2018-07-09T06:02:54.910Z,5.20
2018-07-09T06:05:24.428Z,5.60
2018-07-09T06:07:53.922Z,5.00
2018-07-09T06:10:23.520Z,4.50
2018-07-09T06:12:53.036Z,4.67
2018-07-09T06:15:22.560Z,4.03
2018-07-09T06:17:52.107Z,4.90
2018-07-09T06:20:21.589Z,4.80
2018-07-09T06:22:51.123Z,4.73
2018-07-09T06:25:20.685Z,5.87
2018-07-09T06:27:50.210Z,4.90
2018-07-09T06:30:19.725Z,4.90
2018-07-09T06:32:49.026Z,4.87
2018-07-09T06:35:18.868Z,5.30
2018-07-09T06:37:48.448Z,5.07
2018-07-09T06:40:18.102Z,3.97
2018-07-09T06:42:47.934Z,4.70
2018-07-09T06:45:17.681Z,4.47
2018-07-09T06:47:47.284Z,4.60
2018-07-09T06:50:16.844Z,4.73
2018-07-09T06:52:46.511Z,4.57
2018-07-09T06:55:16.034Z,4.67
2018-07-09T06:57:45.594Z,4.47
2018-07-09T07:00:15.244Z,4.30
2018-07-09T07:02:44.817Z,4.73
2018-07-09T07:05:14.392Z,4.37
2018-07-09T07:07:43.951Z,4.50
2018-07-09T07:10:13.509Z,4.70
2018-07-09T07:12:43.028Z,4.07
2018-07-09T07:15:12.583Z,4.07
2018-07-09T07:17:42.098Z,4.60
2018-07-09T07:20:11.618Z,4.73
2018-07-09T07:22:41.303Z,4.20
2018-07-09T07:25:10.963Z,4.97
2018-07-09T07:27:40.543Z,4.93
2018-07-09T07:30:10.123Z,5.33
2018-07-09T07:32:39.696Z,3.87
2018-07-09T07:35:09.236Z,4.17
2018-07-09T07:37:38.792Z,4.40
2018-07-09T07:40:08.393Z,5.07
2018-07-09T07:42:37.924Z,5.93
2018-07-09T07:45:07.437Z,4.70
2018-07-09T07:47:36.993Z,5.10
2018-07-09T07:50:06.831Z,4.43
2018-07-09T07:52:36.363Z,4.23
2018-07-09T07:55:05.703Z,4.80
2018-07-09T07:57:35.110Z,4.80
2018-07-09T08:00:04.990Z,4.63
2018-07-09T08:02:34.550Z,5.57
2018-07-09T08:05:04.134Z,4.50
2018-07-09T08:07:34.088Z,4.67
2018-07-09T08:10:04.064Z,4.90
2018-07-09T08:15:03.393Z,4.40
2018-07-09T08:17:32.946Z,4.20
2018-07-09T08:20:02.715Z,4.90
2018-07-09T08:22:32.266Z,4.43
2018-07-09T08:25:01.799Z,5.03
2018-07-09T08:27:31.343Z,4.60
2018-07-09T08:30:00.937Z,4.67
2018-07-09T08:32:30.490Z,4.43
2018-07-09T08:35:00.069Z,4.63
2018-07-09T08:37:29.614Z,4.83
2018-07-09T08:39:59.211Z,4.40
2018-07-09T08:42:29.815Z,5.00
2018-07-09T08:44:59.353Z,5.13
2018-07-09T08:47:28.969Z,5.50
2018-07-09T08:49:58.394Z,5.03
2018-07-09T08:52:28.348Z,5.30
2018-07-09T08:54:57.852Z,5.17
2018-07-09T08:57:27.422Z,5.30
2018-07-09T08:59:56.947Z,4.40
2018-07-09T09:02:26.469Z,5.40
2018-07-09T09:04:56.017Z,4.43
2018-07-09T09:07:25.565Z,4.30
2018-07-09T09:09:55.093Z,4.20
2018-07-09T09:12:24.595Z,4.70
2018-07-09T09:14:54.136Z,4.13
2018-07-09T09:17:23.663Z,4.90
2018-07-09T09:19:53.211Z,4.10
2018-07-09T09:22:22.695Z,4.30
2018-07-09T09:24:51.937Z,4.80
2018-07-09T09:27:21.268Z,4.37
2018-07-09T09:29:50.894Z,4.60
2018-07-09T09:32:20.458Z,5.10
2018-07-09T09:34:49.659Z,4.40
2018-07-09T09:37:19.072Z,4.20
2018-07-09T09:39:48.603Z,4.13
2018-07-09T09:42:18.174Z,4.20
2018-07-09T09:44:47.898Z,3.93
2018-07-09T09:47:17.456Z,4.40
2018-07-09T09:49:46.964Z,3.50
2018-07-09T09:52:16.904Z,3.67
2018-07-09T09:54:46.523Z,3.67
2018-07-09T09:57:16.015Z,3.57
2018-07-09T09:59:45.549Z,3.50
2018-07-09T10:02:16.737Z,3.73
2018-07-09T10:04:46.282Z,3.53
2018-07-09T10:07:15.783Z,3.00
2018-07-09T10:09:45.385Z,3.97
2018-07-09T10:12:14.927Z,2.93
2018-07-09T10:14:44.499Z,3.87
2018-07-09T10:17:13.900Z,2.97
2018-07-09T10:19:43.836Z,3.13
2018-07-09T10:22:13.523Z,3.10
2018-07-09T10:24:43.078Z,3.10
2018-07-09T10:27:12.846Z,2.90
2018-07-09T10:29:43.047Z,3.13
2018-07-09T10:32:12.594Z,3.50
2018-07-09T10:34:42.175Z,2.73
2018-07-09T10:37:12.279Z,2.87
2018-07-09T10:39:41.807Z,2.60
2018-07-09T10:42:11.414Z,2.63
2018-07-09T10:44:40.904Z,2.97
2018-07-09T10:47:10.666Z,3.03
2018-07-09T10:49:40.198Z,3.73
2018-07-09T10:52:09.755Z,3.30
2018-07-09T10:54:39.336Z,2.90
2018-07-09T10:57:08.594Z,3.20
2018-07-09T10:59:37.942Z,3.47
2018-07-09T11:02:07.561Z,3.47
2018-07-09T11:04:37.194Z,3.63
2018-07-09T11:07:06.819Z,3.13
2018-07-09T11:09:36.386Z,3.37
2018-07-09T11:12:05.873Z,3.90
2018-07-09T11:14:35.422Z,3.10
2018-07-09T11:17:04.961Z,3.50
2018-07-09T11:19:34.488Z,3.73
2018-07-09T11:22:04.110Z,3.20
2018-07-09T11:24:34.192Z,3.23
2018-07-09T11:27:03.764Z,3.40
2018-07-09T11:29:33.324Z,3.13
2018-07-09T11:32:02.884Z,3.40
2018-07-09T11:34:32.392Z,3.60
2018-07-09T11:37:01.955Z,3.47
2018-07-09T11:39:31.544Z,3.23
2018-07-09T11:42:00.739Z,3.40
2018-07-09T11:44:30.144Z,3.07
2018-07-09T11:46:59.724Z,3.60
2018-07-09T11:49:29.308Z,3.20
2018-07-09T11:51:58.880Z,3.17
2018-07-09T11:54:28.427Z,3.47
2018-07-09T11:56:57.971Z,3.30
2018-07-09T11:59:27.577Z,3.20
2018-07-09T12:01:57.137Z,3.40
2018-07-09T12:04:26.667Z,3.50
2018-07-09T12:06:56.263Z,2.90
2018-07-09T12:09:25.870Z,3.40
2018-07-09T12:11:55.438Z,3.43
2018-07-09T12:14:25.107Z,2.40
2018-07-09T12:16:54.704Z,2.80
2018-07-09T12:19:24.303Z,2.80
2018-07-09T12:21:53.872Z,2.33
2018-07-09T12:24:23.440Z,2.67
2018-07-09T12:26:53.044Z,2.50
2018-07-09T12:29:22.579Z,2.50
2018-07-09T12:31:52.116Z,2.63
2018-07-09T12:34:21.652Z,2.77
2018-07-09T12:36:51.198Z,3.10
2018-07-09T12:39:20.703Z,3.10
2018-07-09T12:41:50.296Z,3.10
2018-07-09T12:44:19.885Z,3.53
2018-07-09T12:46:49.449Z,3.33
2018-07-09T12:49:18.981Z,2.70
2018-07-09T12:51:48.550Z,2.90
2018-07-09T12:54:18.138Z,2.90
2018-07-09T12:56:47.676Z,3.00
2018-07-09T12:59:17.177Z,2.80
2018-07-09T13:01:46.734Z,2.63
2018-07-09T13:04:16.254Z,2.90
2018-07-09T13:06:45.789Z,2.87
2018-07-09T13:09:15.351Z,2.60
2018-07-09T13:11:44.990Z,3.50
2018-07-09T13:14:14.571Z,2.90
2018-07-09T13:16:44.898Z,3.30
2018-07-09T13:19:14.516Z,2.57
2018-07-09T13:21:44.076Z,3.53
2018-07-09T13:24:13.643Z,3.20
2018-07-09T13:26:43.323Z,3.17
2018-07-09T13:29:12.927Z,2.80
2018-07-09T13:31:42.516Z,3.03
2018-07-09T13:34:12.085Z,2.70
2018-07-09T13:36:41.698Z,3.03
2018-07-09T13:39:11.395Z,3.50
2018-07-09T13:41:41.026Z,3.00
2018-07-09T13:44:10.628Z,3.50
2018-07-09T13:46:40.190Z,3.30
2018-07-09T13:49:09.704Z,3.30
2018-07-09T13:51:39.288Z,3.53
2018-07-09T13:54:08.897Z,3.20
2018-07-09T13:56:38.577Z,4.00
2018-07-09T13:59:08.296Z,3.80
2018-07-09T14:01:40.109Z,4.00
2018-07-09T14:04:09.763Z,3.43
2018-07-09T14:06:39.501Z,3.53
2018-07-09T14:09:09.156Z,3.57
2018-07-09T14:11:38.757Z,3.40
2018-07-09T14:14:08.335Z,3.10
2018-07-09T14:16:37.944Z,3.60
2018-07-09T14:19:18.433Z,3.40
2018-07-09T14:21:47.965Z,3.70
2018-07-09T14:24:17.572Z,3.90
2018-07-09T14:26:47.447Z,3.80
2018-07-09T14:29:17.032Z,3.30
2018-07-09T14:31:46.595Z,3.67
2018-07-09T14:34:16.147Z,3.70
2018-07-09T14:36:45.697Z,2.90
2018-07-09T14:39:15.336Z,3.53
2018-07-09T14:41:44.894Z,3.90
2018-07-09T14:44:14.468Z,3.80
2018-07-09T14:46:44.043Z,3.23
2018-07-09T14:49:13.614Z,4.23
2018-07-09T14:51:43.186Z,3.70
2018-07-09T14:54:12.732Z,3.17
2018-07-09T14:56:42.251Z,2.93
2018-07-09T14:59:11.888Z,3.10
2018-07-09T15:01:41.432Z,3.80
2018-07-09T15:04:12.053Z,3.43
2018-07-09T15:06:41.598Z,3.53
2018-07-09T15:09:11.242Z,3.20
2018-07-09T15:11:40.788Z,3.17
2018-07-09T15:14:10.380Z,3.27
2018-07-09T15:16:39.888Z,2.93
2018-07-09T15:19:10.121Z,2.97
2018-07-09T15:21:39.728Z,3.03
2018-07-09T15:24:09.280Z,3.40
2018-07-09T15:26:38.875Z,3.13
2018-07-09T15:29:08.563Z,3.53
2018-07-09T15:32:41.226Z,3.00
2018-07-09T15:35:10.456Z,3.57
2018-07-09T15:37:39.812Z,3.40
2018-07-09T15:40:09.356Z,3.70
2018-07-09T15:42:38.895Z,3.33
2018-07-09T15:45:08.429Z,3.40
2018-07-09T15:47:38.039Z,3.63
2018-07-09T15:50:07.683Z,2.93
2018-07-09T15:52:37.309Z,3.63
2018-07-09T15:55:06.863Z,3.10
2018-07-09T15:57:36.466Z,3.37
2018-07-09T16:00:06.231Z,3.63
2018-07-09T16:02:36.314Z,4.40
2018-07-09T16:05:05.921Z,3.67
2018-07-09T16:07:35.480Z,3.73
2018-07-09T16:10:05.347Z,3.40
2018-07-09T16:12:34.811Z,3.50
2018-07-09T16:15:04.752Z,3.27
2018-07-09T16:17:34.279Z,3.50
2018-07-09T16:20:03.878Z,4.10
2018-07-09T16:22:33.470Z,3.90
2018-07-09T16:25:03.071Z,3.83
2018-07-09T16:27:32.615Z,3.70
2018-07-09T16:30:02.177Z,6.93
2018-07-09T16:32:31.754Z,3.70
2018-07-09T16:35:01.324Z,3.27
2018-07-09T16:37:30.859Z,3.63
2018-07-09T16:40:00.390Z,3.73
2018-07-09T16:42:29.989Z,3.53
2018-07-09T16:44:59.614Z,3.20
2018-07-09T16:47:29.211Z,3.47
2018-07-09T16:49:58.788Z,3.20
2018-07-09T16:52:28.361Z,3.47
2018-07-09T16:54:57.846Z,3.50
2018-07-09T16:57:27.377Z,3.27
2018-07-09T16:59:56.956Z,3.33
2018-07-09T17:02:26.613Z,3.07
2018-07-09T17:04:56.168Z,3.70
2018-07-09T17:07:25.830Z,3.23
2018-07-09T17:09:55.759Z,3.80
2018-07-09T17:12:25.407Z,3.43
2018-07-09T17:14:54.957Z,3.33
2018-07-09T17:17:24.568Z,3.80
2018-07-09T17:19:54.188Z,3.17
2018-07-09T17:22:23.787Z,3.70
2018-07-09T17:24:53.404Z,3.70
2018-07-09T17:27:23.128Z,3.80
2018-07-09T17:29:52.771Z,4.80
2018-07-09T17:32:22.420Z,3.33
2018-07-09T17:34:53.000Z,3.90
2018-07-09T17:37:22.620Z,4.00
2018-07-09T17:39:53.401Z,3.87
2018-07-09T17:42:22.750Z,3.50
2018-07-09T17:44:52.144Z,3.80
2018-07-09T17:47:21.788Z,3.40
2018-07-09T17:49:51.550Z,4.00
2018-07-09T17:52:21.108Z,3.80
2018-07-09T17:54:50.744Z,3.43
2018-07-09T17:57:20.563Z,3.50
2018-07-09T17:59:50.195Z,3.60
2018-07-09T18:02:19.988Z,3.83
2018-07-09T18:04:49.576Z,3.73
2018-07-09T18:07:19.258Z,4.20
2018-07-09T18:09:48.588Z,3.90
2018-07-09T18:12:18.039Z,3.70
2018-07-09T18:14:47.654Z,4.00
2018-07-09T18:17:17.317Z,3.50
2018-07-09T18:19:46.958Z,3.60
2018-07-09T18:22:16.564Z,3.47
2018-07-09T18:24:46.263Z,4.03
2018-07-09T18:27:15.934Z,5.00
2018-07-09T18:29:45.584Z,4.20
2018-07-09T18:32:15.233Z,4.30
2018-07-09T18:34:44.556Z,4.33
2018-07-09T18:37:14.615Z,4.13
2018-07-09T18:39:44.313Z,4.13
2018-07-09T18:42:13.998Z,3.63
2018-07-09T18:44:43.740Z,3.77
2018-07-09T18:47:14.445Z,3.70
2018-07-09T18:49:44.770Z,3.40
2018-07-09T18:52:14.527Z,4.20
2018-07-09T18:54:44.281Z,4.40
2018-07-09T18:57:14.390Z,4.10
2018-07-09T18:59:44.039Z,3.90
2018-07-09T19:02:13.687Z,4.17
2018-07-09T19:04:43.725Z,3.90
2018-07-09T19:07:23.711Z,4.20
2018-07-09T19:09:53.735Z,3.80
2018-07-09T19:12:23.597Z,4.50
2018-07-09T19:14:53.581Z,4.50
2018-07-09T19:18:03.983Z,4.43
2018-07-09T19:20:45.459Z,7.83
2018-07-09T19:23:14.024Z,5.03
2018-07-09T19:25:42.537Z,4.90
2018-07-09T19:28:11.115Z,5.00
2018-07-09T19:30:39.593Z,4.60
2018-07-09T19:33:08.257Z,4.40
2018-07-09T19:35:36.804Z,3.97
2018-07-09T19:38:05.625Z,4.27
2018-07-09T19:40:34.123Z,4.60
2018-07-09T19:43:02.581Z,4.50
2018-07-09T19:45:31.034Z,4.00
2018-07-09T19:47:59.534Z,4.20
2018-07-09T19:50:28.275Z,4.40
2018-07-09T19:52:56.582Z,15.27
2018-07-09T19:55:25.016Z,42.87
2018-07-09T19:57:53.547Z,23.17
2018-07-09T20:00:21.996Z,14.30
2018-07-09T20:02:50.513Z,13.23
2018-07-09T20:05:19.072Z,10.83
2018-07-09T20:07:47.562Z,6.40
2018-07-09T20:10:21.303Z,6.10
2018-07-09T20:12:56.329Z,5.20
2018-07-09T20:15:30.226Z,5.77
2018-07-09T20:17:58.735Z,5.10
2018-07-09T20:20:27.194Z,5.20
2018-07-09T20:22:56.129Z,5.03
2018-07-09T20:25:24.600Z,5.40
2018-07-09T20:30:27.921Z,4.67
2018-07-09T20:32:56.417Z,6.00
2018-07-09T20:35:24.880Z,5.00
2018-07-09T20:37:53.305Z,4.77
2018-07-09T20:40:21.775Z,6.10
2018-07-09T20:42:50.520Z,5.20
2018-07-09T20:45:18.838Z,5.37
2018-07-09T20:47:47.268Z,5.37
2018-07-09T20:50:15.727Z,5.10
2018-07-09T20:52:44.161Z,4.70
2018-07-09T20:55:12.626Z,4.93
2018-07-09T20:57:41.067Z,5.37
2018-07-09T21:00:09.518Z,5.10
2018-07-09T21:02:38.302Z,5.47
2018-07-09T21:05:06.586Z,5.00
2018-07-09T21:07:35.057Z,5.10
2018-07-09T21:10:03.540Z,6.07
2018-07-09T21:12:34.305Z,5.40
2018-07-09T21:15:02.788Z,5.07
2018-07-09T21:17:31.222Z,5.20
2018-07-09T21:19:59.690Z,6.03
2018-07-09T21:22:28.147Z,5.50
2018-07-09T21:24:56.629Z,5.40
2018-07-09T21:27:25.047Z,5.37
2018-07-09T21:29:53.537Z,5.60
2018-07-09T21:32:22.047Z,5.83
2018-07-09T21:34:50.491Z,5.57
2018-07-09T21:37:18.997Z,5.50
2018-07-09T21:39:47.382Z,5.60
2018-07-09T21:42:15.864Z,5.00
2018-07-09T21:44:44.292Z,5.43
2018-07-09T21:47:13.134Z,6.50
2018-07-09T21:49:41.588Z,5.57
2018-07-09T21:52:10.047Z,4.93
2018-07-09T21:54:38.691Z,5.60
2018-07-09T21:57:07.146Z,5.00
2018-07-09T21:59:35.595Z,5.20
2018-07-09T22:02:04.071Z,5.40
2018-07-09T22:04:32.492Z,6.03
2018-07-09T22:07:00.916Z,5.10
2018-07-09T22:09:29.336Z,5.77
2018-07-09T22:11:57.771Z,6.50
2018-07-09T22:14:26.182Z,5.90
2018-07-09T22:16:54.605Z,6.43
2018-07-09T22:19:23.043Z,6.07
2018-07-09T22:21:51.466Z,6.17
2018-07-09T22:24:19.866Z,6.00
2018-07-09T22:26:48.321Z,5.60
2018-07-09T22:29:16.868Z,6.70
2018-07-09T22:31:46.417Z,5.80
2018-07-09T22:34:15.916Z,5.60
2018-07-09T22:36:45.377Z,5.63
2018-07-09T22:39:14.907Z,5.20
2018-07-09T22:41:44.449Z,5.73
2018-07-09T22:44:21.469Z,4.90
2018-07-09T22:46:50.979Z,5.07
2018-07-09T22:49:20.622Z,5.30
2018-07-09T22:51:50.155Z,5.20
2018-07-09T22:54:19.676Z,5.30
2018-07-09T22:56:49.254Z,5.20
2018-07-09T22:59:18.808Z,4.33
2018-07-09T23:01:48.450Z,5.30
2018-07-09T23:04:18.022Z,5.73
2018-07-09T23:06:47.551Z,5.10
2018-07-09T23:10:27.759Z,4.97
2018-07-09T23:13:25.276Z,5.57
2018-07-09T23:16:38.147Z,4.80
2018-07-09T23:19:26.513Z,4.53
2018-07-09T23:22:02.118Z,5.27
2018-07-09T23:24:30.343Z,5.30
2018-07-09T23:26:58.787Z,5.40
2018-07-09T23:29:27.219Z,5.13
2018-07-09T23:31:55.652Z,5.57
2018-07-09T23:34:24.092Z,5.73
2018-07-09T23:36:52.480Z,4.90
2018-07-09T23:39:20.947Z,6.07
2018-07-09T23:41:49.427Z,4.90
2018-07-09T23:44:17.857Z,5.57
2018-07-09T23:46:46.293Z,5.07
2018-07-09T23:49:14.698Z,7.30
2018-07-09T23:51:43.116Z,5.20
2018-07-09T23:54:11.517Z,5.50
2018-07-09T23:59:24.711Z,5.30
